Time;durP1;ratioP1;P1;durP2;ratioP2;P2;SDS_P1;SDS_P2;PMS_P1;PMS_P2;Temp;Humidity;BMP_temperature;BMP_pressure;BME280_temperature;BME280_humidity;BME280_pressure;Samples;Min_cycle;Max_cycle;Signal;HPM_P1;HPM_P2
2021/03/25 00:00:53;;;;;;;38.70;21.30;;;10.00;99.90;;;;;;4142887;28;20092;-68
2021/03/25 00:02:56;;;;;;;41.20;20.25;;;10.00;99.90;;;;;;4118155;28;20074;-69
2021/03/25 00:04:57;;;;;;;40.75;19.98;;;10.00;99.90;;;;;;4120793;28;20444;-68
2021/03/25 00:07:00;;;;;;;45.08;21.83;;;9.90;99.90;;;;;;4134871;28;20041;-68
2021/03/25 00:09:02;;;;;;;46.78;23.23;;;9.90;99.90;;;;;;4115664;28;20035;-68
2021/03/25 00:11:03;;;;;;;45.45;23.50;;;9.90;99.90;;;;;;4105523;28;20034;-68
2021/03/25 00:13:04;;;;;;;46.72;23.40;;;9.80;99.90;;;;;;4142262;28;20057;-68
2021/03/25 00:15:06;;;;;;;43.70;23.17;;;9.80;99.90;;;;;;4138743;28;20173;-68
2021/03/25 00:17:07;;;;;;;50.83;25.23;;;9.80;99.90;;;;;;4126307;28;20038;-68
2021/03/25 00:19:08;;;;;;;46.65;23.77;;;9.80;99.90;;;;;;4134994;28;20030;-68
2021/03/25 00:21:11;;;;;;;44.25;23.85;;;9.80;99.90;;;;;;4141930;28;20038;-68
2021/03/25 00:23:12;;;;;;;46.80;24.20;;;9.80;99.90;;;;;;4140283;28;20092;-68
2021/03/25 00:25:16;;;;;;;48.17;24.90;;;9.80;99.90;;;;;;4124420;28;20061;-68
2021/03/25 00:27:16;;;;;;;46.45;25.38;;;9.70;99.90;;;;;;4124272;28;20644;-68
2021/03/25 00:29:17;;;;;;;55.03;26.40;;;9.70;99.90;;;;;;4142081;28;20038;-68
2021/03/25 00:31:18;;;;;;;48.80;25.52;;;9.70;99.90;;;;;;4142581;28;20026;-68
2021/03/25 00:33:20;;;;;;;50.88;26.25;;;9.70;99.90;;;;;;4142382;28;20030;-68
2021/03/25 00:35:21;;;;;;;46.88;23.85;;;9.70;99.90;;;;;;4134791;28;20398;-68
2021/03/25 00:37:22;;;;;;;49.30;25.15;;;9.70;99.90;;;;;;4142001;28;20030;-68
2021/03/25 00:39:22;;;;;;;52.03;25.67;;;9.70;99.90;;;;;;4137146;28;20538;-68
2021/03/25 00:41:23;;;;;;;51.00;25.42;;;9.70;99.90;;;;;;4115931;28;20400;-68
2021/03/25 00:43:24;;;;;;;47.60;25.40;;;9.70;99.90;;;;;;4135200;28;20696;-68
2021/03/25 00:45:33;;;;;;;46.65;25.25;;;9.70;99.90;;;;;;4139864;28;20030;-68
2021/03/25 00:47:34;;;;;;;48.83;25.63;;;9.70;99.90;;;;;;4141978;28;20034;-69
2021/03/25 00:49:35;;;;;;;46.75;25.13;;;9.70;99.90;;;;;;4142348;28;20069;-69
2021/03/25 00:51:42;;;;;;;49.22;24.63;;;9.60;99.90;;;;;;4141689;28;20382;-69
2021/03/25 00:53:43;;;;;;;40.83;23.48;;;9.60;99.90;;;;;;4141223;28;20034;-68
2021/03/25 00:55:44;;;;;;;41.90;21.98;;;9.50;99.90;;;;;;4125614;28;20030;-68
2021/03/25 00:57:44;;;;;;;42.95;22.90;;;9.50;99.90;;;;;;4145735;28;20037;-68
2021/03/25 00:59:45;;;;;;;40.10;20.67;;;9.40;99.90;;;;;;4137284;28;20125;-69
2021/03/25 01:01:46;;;;;;;44.92;21.77;;;9.40;99.90;;;;;;4111236;28;20134;-68
2021/03/25 01:03:47;;;;;;;37.90;20.30;;;9.50;99.90;;;;;;4144340;28;20034;-70
2021/03/25 01:05:47;;;;;;;39.33;21.02;;;9.40;99.90;;;;;;4144502;28;20100;-68
2021/03/25 01:07:49;;;;;;;41.90;22.77;;;9.50;99.90;;;;;;4135535;28;20030;-69
2021/03/25 01:09:50;;;;;;;41.08;20.75;;;9.40;99.90;;;;;;4145133;28;20103;-68
2021/03/25 01:11:52;;;;;;;43.33;22.40;;;9.50;99.90;;;;;;4145349;28;20115;-68
2021/03/25 01:14:02;;;;;;;45.60;23.33;;;9.50;99.90;;;;;;4144164;28;20053;-68
2021/03/25 01:16:05;;;;;;;41.30;21.95;;;9.50;99.90;;;;;;4145471;28;20038;-69
2021/03/25 01:18:08;;;;;;;33.05;18.95;;;9.40;99.90;;;;;;4144185;28;20140;-69
2021/03/25 01:20:16;;;;;;;37.70;19.30;;;9.40;99.90;;;;;;4131735;28;20031;-69
2021/03/25 01:22:16;;;;;;;35.60;18.52;;;9.40;99.90;;;;;;4144221;28;20045;-68
2021/03/25 01:24:18;;;;;;;31.15;16.92;;;9.40;99.90;;;;;;4145294;28;20511;-68
2021/03/25 01:26:19;;;;;;;32.60;17.45;;;9.40;99.90;;;;;;4145106;28;20034;-68
2021/03/25 01:28:20;;;;;;;30.80;17.50;;;9.40;99.90;;;;;;4140609;28;20035;-68
2021/03/25 01:30:22;;;;;;;39.38;20.65;;;9.40;99.90;;;;;;4133378;28;20105;-68
2021/03/25 01:32:23;;;;;;;39.35;20.40;;;9.40;99.90;;;;;;4143884;28;20038;-68
2021/03/25 01:34:24;;;;;;;38.78;20.27;;;9.40;99.90;;;;;;4144988;28;20109;-68
2021/03/25 01:36:25;;;;;;;44.70;22.10;;;9.30;99.90;;;;;;4145349;28;20044;-69
2021/03/25 01:38:25;;;;;;;40.60;22.02;;;9.30;99.90;;;;;;4139573;28;20372;-68
2021/03/25 01:40:34;;;;;;;45.47;22.80;;;9.40;99.90;;;;;;4119620;28;20419;-68
2021/03/25 01:42:36;;;;;;;40.67;22.25;;;9.40;99.90;;;;;;4143660;28;20099;-68
2021/03/25 01:44:39;;;;;;;38.72;21.42;;;9.40;99.90;;;;;;4137299;28;20049;-69
2021/03/25 01:46:40;;;;;;;44.67;24.00;;;9.40;99.90;;;;;;4144395;28;20034;-68
2021/03/25 01:48:42;;;;;;;43.55;23.48;;;9.40;99.90;;;;;;4137631;28;20121;-68
2021/03/25 01:50:43;;;;;;;46.22;23.73;;;9.40;99.90;;;;;;4135487;28;20134;-69
2021/03/25 01:52:59;;;;;;;41.88;21.38;;;9.40;99.90;;;;;;4129544;28;20065;-69
2021/03/25 01:55:45;;;;;;;45.47;22.38;;;9.40;99.90;;;;;;4137984;28;20046;-68
2021/03/25 01:58:14;;;;;;;45.63;24.27;;;9.40;99.90;;;;;;4139308;28;20117;-69
2021/03/25 02:00:39;;;;;;;42.53;22.23;;;9.30;99.90;;;;;;4121801;28;20490;-69
2021/03/25 02:02:58;;;;;;;45.33;24.65;;;9.30;99.90;;;;;;4111756;28;20027;-68
2021/03/25 02:05:24;;;;;;;48.38;25.40;;;9.30;99.90;;;;;;4110793;28;20069;-68
2021/03/25 02:07:36;;;;;;;53.85;26.38;;;9.30;99.90;;;;;;4140313;28;20525;-68
2021/03/25 02:09:41;;;;;;;51.83;25.65;;;9.30;99.90;;;;;;4143165;28;20528;-68
2021/03/25 02:12:15;;;;;;;44.78;24.20;;;9.20;99.90;;;;;;4144501;28;20053;-68
2021/03/25 02:14:27;;;;;;;43.78;23.80;;;9.20;99.90;;;;;;4140499;28;20041;-68
2021/03/25 02:16:37;;;;;;;55.78;26.73;;;9.30;99.90;;;;;;4125152;28;20125;-68
2021/03/25 02:18:58;;;;;;;50.70;27.23;;;9.30;99.90;;;;;;4142427;28;20421;-68
2021/03/25 02:21:38;;;;;;;48.80;25.20;;;9.30;99.90;;;;;;4143236;28;20034;-68
2021/03/25 02:24:09;;;;;;;48.63;26.02;;;9.30;99.90;;;;;;4142829;28;20037;-68
2021/03/25 02:26:34;;;;;;;47.53;25.15;;;9.30;99.90;;;;;;4137780;28;20034;-68
2021/03/25 02:29:03;;;;;;;44.80;25.48;;;9.40;99.90;;;;;;4141152;28;20497;-68
2021/03/25 02:31:12;;;;;;;48.40;25.65;;;9.30;99.90;;;;;;4130524;28;20044;-68
2021/03/25 02:33:19;;;;;;;45.80;25.40;;;9.40;99.90;;;;;;4143969;28;20058;-68
2021/03/25 02:35:33;;;;;;;46.60;26.42;;;9.40;99.90;;;;;;4140448;28;20390;-68
2021/03/25 02:37:35;;;;;;;48.00;26.15;;;9.40;99.90;;;;;;4126387;28;20042;-69
2021/03/25 02:39:47;;;;;;;47.67;26.00;;;9.40;99.90;;;;;;4135689;28;20046;-68
2021/03/25 02:41:52;;;;;;;43.03;23.65;;;9.40;99.90;;;;;;4123220;28;20038;-68
2021/03/25 02:44:10;;;;;;;45.45;24.45;;;9.40;99.90;;;;;;4140249;28;20100;-68
2021/03/25 02:46:28;;;;;;;44.10;24.40;;;9.40;99.90;;;;;;4136273;28;20633;-68
2021/03/25 02:48:31;;;;;;;45.17;24.63;;;9.40;99.90;;;;;;4133950;28;20034;-68
2021/03/25 02:50:37;;;;;;;;;;;9.40;99.90;;;;;;4120664;28;20049;-68
2021/03/25 02:52:47;;;;;;;43.10;23.15;;;9.40;99.90;;;;;;4126551;28;19921;-68
2021/03/25 02:54:52;;;;;;;45.42;23.17;;;9.40;99.90;;;;;;4115083;28;20058;-68
2021/03/25 02:56:56;;;;;;;49.60;23.98;;;9.40;99.90;;;;;;4122820;28;20038;-69
2021/03/25 02:59:07;;;;;;;43.65;24.52;;;9.40;99.90;;;;;;4124598;28;20030;-68
2021/03/25 03:01:11;;;;;;;46.22;26.08;;;9.40;99.90;;;;;;4124924;28;20128;-69
2021/03/25 03:03:17;;;;;;;51.85;27.10;;;9.40;99.90;;;;;;4112158;28;20113;-68
2021/03/25 03:05:24;;;;;;;58.28;29.60;;;9.40;99.90;;;;;;4120956;28;20038;-68
2021/03/25 03:07:31;;;;;;;52.90;27.58;;;9.40;99.90;;;;;;4127028;28;20045;-69
2021/03/25 03:09:39;;;;;;;46.78;25.95;;;9.40;99.90;;;;;;4116881;28;20038;-68
2021/03/25 03:11:46;;;;;;;46.08;26.05;;;9.30;99.90;;;;;;4116491;28;20118;-69
2021/03/25 03:13:53;;;;;;;51.47;25.85;;;9.40;99.90;;;;;;4125284;28;20041;-69
2021/03/25 03:16:13;;;;;;;44.70;25.10;;;9.30;99.90;;;;;;4118198;28;20054;-68
2021/03/25 03:18:19;;;;;;;46.78;26.10;;;9.30;99.90;;;;;;4125866;28;20040;-68
2021/03/25 03:20:33;;;;;;;49.22;26.48;;;9.30;99.90;;;;;;4132471;28;20045;-69
2021/03/25 03:22:35;;;;;;;49.17;27.02;;;9.30;99.90;;;;;;4143343;28;20032;-68
2021/03/25 03:24:37;;;;;;;46.72;25.73;;;9.30;99.90;;;;;;4141980;28;22270;-68
2021/03/25 03:26:53;;;;;;;49.50;26.73;;;9.30;99.90;;;;;;4134399;28;20035;-68
2021/03/25 03:29:04;;;;;;;51.72;27.40;;;9.30;99.90;;;;;;4113328;28;20038;-68
2021/03/25 03:31:09;;;;;;;53.38;28.70;;;9.30;99.90;;;;;;4132572;28;20165;-68
2021/03/25 03:33:33;;;;;;;56.83;28.33;;;9.40;99.90;;;;;;4127230;28;20382;-68
2021/03/25 03:35:45;;;;;;;51.25;28.52;;;9.40;99.90;;;;;;4123919;28;20506;-68
2021/03/25 03:37:54;;;;;;;48.80;27.13;;;9.40;99.90;;;;;;4105111;28;20549;-68
2021/03/25 03:39:57;;;;;;;50.58;26.80;;;9.30;99.90;;;;;;4135977;28;20034;-68
2021/03/25 03:42:09;;;;;;;46.65;26.35;;;9.30;99.90;;;;;;4127012;28;20035;-68
2021/03/25 03:44:15;;;;;;;48.25;25.48;;;9.30;99.90;;;;;;4130224;28;20065;-68
2021/03/25 03:46:19;;;;;;;49.05;26.58;;;9.30;99.90;;;;;;4139246;28;20049;-68
2021/03/25 03:48:33;;;;;;;49.70;24.48;;;9.30;99.90;;;;;;4124141;28;20031;-68
2021/03/25 03:50:44;;;;;;;41.65;24.15;;;9.30;99.90;;;;;;4142524;28;20042;-68
2021/03/25 03:52:49;;;;;;;52.90;27.05;;;9.40;99.90;;;;;;4135358;28;20100;-68
2021/03/25 03:54:51;;;;;;;51.80;28.45;;;9.40;99.90;;;;;;4126673;28;20030;-68
2021/03/25 03:57:01;;;;;;;53.10;27.85;;;9.40;99.90;;;;;;4139818;28;20482;-68
2021/03/25 03:59:09;;;;;;;52.75;27.60;;;9.40;99.90;;;;;;4142525;28;20057;-68
2021/03/25 04:01:21;;;;;;;48.88;27.02;;;9.40;99.90;;;;;;4137049;28;20046;-68
2021/03/25 04:03:39;;;;;;;51.63;27.08;;;9.40;99.90;;;;;;4138603;28;20429;-68
2021/03/25 04:05:44;;;;;;;49.28;26.88;;;9.40;99.90;;;;;;4110860;28;20043;-68
2021/03/25 04:07:51;;;;;;;55.08;28.30;;;9.40;99.90;;;;;;4148238;28;20038;-69
2021/03/25 04:10:01;;;;;;;48.33;27.02;;;9.40;99.90;;;;;;4122176;28;20045;-68
2021/03/25 04:12:08;;;;;;;51.55;28.08;;;9.40;99.90;;;;;;4108954;28;20455;-68
2021/03/25 04:14:15;;;;;;;48.88;26.70;;;9.40;99.90;;;;;;4126198;28;20034;-68
2021/03/25 04:16:22;;;;;;;49.00;26.45;;;9.40;99.90;;;;;;4121739;28;20038;-68
2021/03/25 04:18:43;;;;;;;50.00;25.67;;;9.40;99.90;;;;;;4120195;28;20073;-68
2021/03/25 04:20:51;;;;;;;48.65;26.27;;;9.40;99.90;;;;;;4118059;28;20042;-68
2021/03/25 04:23:00;;;;;;;44.33;24.63;;;9.40;99.90;;;;;;4127026;28;20120;-68
2021/03/25 04:25:17;;;;;;;50.50;27.98;;;9.40;99.90;;;;;;4136897;28;20045;-68
2021/03/25 04:27:22;;;;;;;46.58;25.33;;;9.40;99.90;;;;;;4135981;28;20157;-68
2021/03/25 04:29:34;;;;;;;47.17;26.75;;;9.40;99.90;;;;;;4132470;28;20038;-68
2021/03/25 04:31:36;;;;;;;45.55;26.20;;;9.40;99.90;;;;;;4135954;28;20037;-68
2021/03/25 04:33:39;;;;;;;51.38;28.33;;;9.40;99.90;;;;;;4118451;28;20534;-68
2021/03/25 04:35:42;;;;;;;54.80;28.70;;;9.50;99.90;;;;;;4141203;28;20034;-68
2021/03/25 04:37:44;;;;;;;51.83;28.50;;;9.50;99.90;;;;;;4140836;28;20120;-68
2021/03/25 04:39:47;;;;;;;48.97;27.88;;;9.50;99.90;;;;;;4140608;28;20084;-68
2021/03/25 04:41:54;;;;;;;52.42;28.08;;;9.50;99.90;;;;;;4120109;28;20085;-68
2021/03/25 04:44:01;;;;;;;53.03;29.00;;;9.40;99.90;;;;;;4139361;28;20042;-68
2021/03/25 04:46:26;;;;;;;54.17;27.67;;;9.40;99.90;;;;;;4139369;28;20030;-68
2021/03/25 04:48:32;;;;;;;46.13;26.20;;;9.50;99.90;;;;;;4120639;28;20034;-68
2021/03/25 04:50:39;;;;;;;53.47;27.75;;;9.50;99.90;;;;;;4137228;28;20049;-68
2021/03/25 04:52:41;;;;;;;53.38;26.73;;;9.50;99.90;;;;;;4122729;28;20033;-68
2021/03/25 04:54:41;;;;;;;52.25;28.05;;;9.50;99.90;;;;;;4137509;28;20054;-68
2021/03/25 04:56:42;;;;;;;59.00;28.88;;;9.50;99.90;;;;;;4138301;28;20045;-68
2021/03/25 04:58:54;;;;;;;56.53;30.73;;;9.40;99.90;;;;;;4127941;28;20046;-68
2021/03/25 05:01:11;;;;;;;53.47;27.75;;;9.30;99.90;;;;;;4122619;28;20044;-69
2021/03/25 05:03:19;;;;;;;55.90;29.27;;;9.20;99.90;;;;;;4140115;28;20740;-68
2021/03/25 05:05:25;;;;;;;57.38;29.95;;;9.20;99.90;;;;;;4135942;28;20046;-68
2021/03/25 05:07:32;;;;;;;55.03;30.63;;;9.20;99.90;;;;;;4143459;28;20042;-68
2021/03/25 05:09:36;;;;;;;67.28;36.78;;;9.10;99.90;;;;;;4128300;28;20041;-68
2021/03/25 05:11:39;;;;;;;65.45;34.78;;;9.10;99.90;;;;;;4139510;28;20041;-68
2021/03/25 05:13:43;;;;;;;67.57;33.30;;;9.10;99.90;;;;;;4138392;28;20087;-68
2021/03/25 05:15:44;;;;;;;71.95;37.28;;;9.10;99.90;;;;;;4138997;28;20140;-68
2021/03/25 05:18:08;;;;;;;72.50;36.75;;;9.10;99.90;;;;;;4120090;28;20523;-68
2021/03/25 05:20:22;;;;;;;76.07;37.30;;;9.20;99.90;;;;;;4125271;28;20038;-68
2021/03/25 05:22:34;;;;;;;65.43;34.88;;;9.20;99.90;;;;;;4121587;28;20406;-69
2021/03/25 05:24:42;;;;;;;63.13;32.33;;;9.20;99.90;;;;;;4134702;28;20037;-68
2021/03/25 05:27:07;;;;;;;65.35;34.42;;;9.20;99.90;;;;;;4145795;28;20037;-69
2021/03/25 05:29:09;;;;;;;71.30;34.78;;;9.20;99.90;;;;;;4124365;28;20096;-68
2021/03/25 05:31:13;;;;;;;63.42;33.95;;;9.20;99.90;;;;;;4127235;28;20035;-68
2021/03/25 05:33:17;;;;;;;61.92;33.33;;;9.20;99.90;;;;;;4123870;28;20104;-68
2021/03/25 05:35:25;;;;;;;67.95;35.92;;;9.30;99.90;;;;;;4128270;28;20060;-68
2021/03/25 05:37:26;;;;;;;65.03;35.08;;;9.30;99.90;;;;;;4137711;28;20030;-68
2021/03/25 05:39:27;;;;;;;63.80;33.83;;;9.30;99.90;;;;;;4136353;28;20489;-68
2021/03/25 05:41:35;;;;;;;55.03;31.55;;;9.30;99.90;;;;;;4117016;28;20032;-68
2021/03/25 05:43:55;;;;;;;62.08;32.53;;;9.30;99.90;;;;;;4133589;28;20486;-68
2021/03/25 05:46:16;;;;;;;57.70;31.52;;;9.30;99.90;;;;;;4129884;28;20085;-68
2021/03/25 05:48:32;;;;;;;60.10;32.13;;;9.40;99.90;;;;;;4138975;28;20034;-68
2021/03/25 05:50:53;;;;;;;60.80;33.08;;;9.40;99.90;;;;;;4140715;28;20048;-68
2021/03/25 05:52:57;;;;;;;61.22;33.60;;;9.40;99.90;;;;;;4130545;28;20121;-68
2021/03/25 05:55:12;;;;;;;60.40;32.35;;;9.40;99.90;;;;;;4147229;28;20022;-68
2021/03/25 05:57:25;;;;;;;62.70;33.67;;;9.40;99.90;;;;;;4139850;28;20386;-68
2021/03/25 05:59:32;;;;;;;61.38;32.63;;;9.40;99.90;;;;;;4140913;28;20117;-68
2021/03/25 06:01:48;;;;;;;62.53;32.88;;;9.40;99.90;;;;;;4139993;28;20065;-69
2021/03/25 06:04:13;;;;;;;60.30;32.03;;;9.40;99.90;;;;;;4136621;28;20087;-68
2021/03/25 06:06:27;;;;;;;65.40;34.17;;;9.40;99.90;;;;;;4124220;28;20029;-69
2021/03/25 06:08:38;;;;;;;65.95;34.85;;;9.40;99.90;;;;;;4117759;28;20277;-68
2021/03/25 06:10:54;;;;;;;59.78;32.25;;;9.40;99.90;;;;;;4137628;28;20047;-68
2021/03/25 06:13:06;;;;;;;61.60;32.70;;;9.40;99.90;;;;;;4135732;28;20033;-68
2021/03/25 06:15:39;;;;;;;58.65;31.58;;;9.40;99.90;;;;;;4129480;28;20081;-68
2021/03/25 06:17:52;;;;;;;61.60;32.42;;;9.50;99.90;;;;;;4143418;28;20041;-68
2021/03/25 06:20:00;;;;;;;54.08;29.85;;;9.50;99.90;;;;;;4141425;28;20117;-68
2021/03/25 06:22:10;;;;;;;59.50;31.90;;;9.50;99.90;;;;;;4134088;28;20041;-68
2021/03/25 06:24:47;;;;;;;62.72;33.72;;;9.50;99.90;;;;;;4134486;28;20048;-68
2021/03/25 06:27:20;;;;;;;59.50;32.67;;;9.50;99.90;;;;;;4131258;28;20096;-68
2021/03/25 06:29:24;;;;;;;58.10;31.35;;;9.60;99.90;;;;;;4138575;28;20060;-68
2021/03/25 06:31:47;;;;;;;58.00;31.02;;;9.60;99.90;;;;;;4134972;28;20033;-68
2021/03/25 06:33:56;;;;;;;57.67;32.20;;;9.60;99.90;;;;;;4121784;28;20026;-69
2021/03/25 06:36:08;;;;;;;69.50;33.42;;;9.60;99.90;;;;;;4137304;28;20041;-69
2021/03/25 06:38:41;;;;;;;55.85;32.08;;;9.70;99.90;;;;;;4137038;28;20030;-68
2021/03/25 06:40:59;;;;;;;57.67;32.42;;;9.70;99.90;;;;;;4139938;28;20331;-68
2021/03/25 06:43:26;;;;;;;58.80;32.63;;;9.70;99.90;;;;;;4120469;28;20034;-68
2021/03/25 06:45:31;;;;;;;58.33;32.90;;;9.70;99.90;;;;;;4110606;28;20098;-68
2021/03/25 06:47:54;;;;;;;63.92;33.90;;;9.80;99.90;;;;;;4139964;28;20064;-68
2021/03/25 06:49:59;;;;;;;58.25;32.47;;;9.80;99.90;;;;;;4123267;28;20049;-68
2021/03/25 06:52:26;;;;;;;61.28;33.40;;;9.90;99.90;;;;;;4122164;28;20030;-68
2021/03/25 06:54:27;;;;;;;57.80;31.50;;;9.90;99.90;;;;;;4136535;28;20049;-68
2021/03/25 06:56:37;;;;;;;61.70;33.63;;;9.90;99.90;;;;;;4134921;28;20065;-68
2021/03/25 06:58:51;;;;;;;65.45;35.60;;;9.90;99.90;;;;;;4139965;28;20046;-68
2021/03/25 07:01:04;;;;;;;61.08;34.67;;;10.00;99.90;;;;;;4138472;28;20034;-68
2021/03/25 07:03:13;;;;;;;71.50;37.35;;;10.00;99.90;;;;;;4103303;28;20136;-68
2021/03/25 07:05:21;;;;;;;60.95;35.63;;;10.00;99.90;;;;;;4117725;28;20038;-68
2021/03/25 07:07:43;;;;;;;66.53;36.83;;;10.00;99.90;;;;;;4140894;28;20034;-68
2021/03/25 07:09:44;;;;;;;66.72;36.40;;;10.10;99.90;;;;;;4121999;28;20129;-68
2021/03/25 07:11:45;;;;;;;65.97;36.85;;;10.10;99.90;;;;;;4124619;28;20105;-68
2021/03/25 07:14:07;;;;;;;63.38;35.53;;;10.20;99.90;;;;;;4139882;28;20061;-68
2021/03/25 07:16:11;;;;;;;66.65;37.38;;;10.20;99.90;;;;;;4135551;28;20756;-68
2021/03/25 07:18:25;;;;;;;65.90;36.42;;;10.30;99.90;;;;;;4125396;28;20042;-68
2021/03/25 07:20:34;;;;;;;80.43;40.22;;;10.30;99.90;;;;;;4129611;28;20032;-68
2021/03/25 07:22:35;;;;;;;70.90;37.63;;;10.30;99.90;;;;;;4137632;28;20068;-68
2021/03/25 07:24:35;;;;;;;70.47;37.42;;;10.30;99.90;;;;;;4122291;28;20082;-68
2021/03/25 07:26:38;;;;;;;69.45;38.83;;;10.30;99.90;;;;;;4100294;28;20043;-68
2021/03/25 07:28:39;;;;;;;71.10;38.15;;;10.40;99.90;;;;;;4125948;28;20488;-68
2021/03/25 07:30:47;;;;;;;66.85;37.75;;;10.40;99.90;;;;;;4111020;28;20417;-68
2021/03/25 07:32:53;;;;;;;75.50;38.80;;;10.40;99.90;;;;;;4136297;28;20038;-68
2021/03/25 07:34:59;;;;;;;74.72;39.10;;;10.40;99.90;;;;;;4109647;28;20089;-68
2021/03/25 07:37:02;;;;;;;72.75;39.80;;;10.50;99.90;;;;;;4138529;28;20049;-68
2021/03/25 07:39:06;;;;;;;76.93;41.47;;;10.50;99.90;;;;;;4138776;28;20089;-69
2021/03/25 07:41:18;;;;;;;79.35;41.58;;;10.50;99.90;;;;;;4125686;28;20048;-68
2021/03/25 07:43:23;;;;;;;76.23;41.17;;;10.50;99.90;;;;;;4122061;28;20138;-68
2021/03/25 07:45:29;;;;;;;74.93;39.33;;;10.50;99.90;;;;;;4117831;28;20321;-69
2021/03/25 07:47:34;;;;;;;79.32;40.33;;;10.60;99.90;;;;;;4134303;28;20121;-69
2021/03/25 07:49:38;;;;;;;76.00;40.47;;;10.60;99.90;;;;;;4136970;28;20050;-68
2021/03/25 07:51:41;;;;;;;71.63;38.92;;;10.60;99.90;;;;;;4137177;28;20124;-68
2021/03/25 07:53:42;;;;;;;67.40;39.13;;;10.70;99.90;;;;;;4131895;28;20087;-68
2021/03/25 07:55:42;;;;;;;79.30;41.28;;;10.70;99.90;;;;;;4131605;28;20494;-68
2021/03/25 07:57:45;;;;;;;77.70;40.70;;;10.70;99.90;;;;;;4133098;28;20478;-68
2021/03/25 07:59:51;;;;;;;74.30;40.78;;;10.70;99.90;;;;;;4136149;28;20100;-68
2021/03/25 08:01:52;;;;;;;76.05;40.13;;;10.70;99.90;;;;;;4135266;28;20041;-68
2021/03/25 08:03:53;;;;;;;72.63;40.70;;;10.70;99.90;;;;;;4115241;28;20494;-68
2021/03/25 08:05:54;;;;;;;74.30;40.05;;;10.70;99.90;;;;;;4122394;28;20528;-69
2021/03/25 08:07:58;;;;;;;80.63;40.80;;;10.70;99.90;;;;;;4140466;28;20038;-68
2021/03/25 08:09:59;;;;;;;76.15;41.95;;;10.70;99.90;;;;;;4138666;28;20045;-68
2021/03/25 08:12:02;;;;;;;78.75;43.08;;;10.70;99.90;;;;;;4107388;28;20085;-68
2021/03/25 08:14:14;;;;;;;79.03;44.08;;;10.70;99.90;;;;;;4139878;28;20038;-68
2021/03/25 08:16:16;;;;;;;85.60;44.35;;;10.70;99.90;;;;;;4120234;28;20113;-68
2021/03/25 08:18:20;;;;;;;79.38;44.13;;;10.70;99.90;;;;;;4118787;28;20041;-68
2021/03/25 08:20:39;;;;;;;79.50;43.58;;;10.70;99.90;;;;;;4122578;28;20108;-68
2021/03/25 08:23:21;;;;;;;76.82;43.42;;;10.70;99.90;;;;;;4137151;28;20141;-68
2021/03/25 08:26:08;;;;;;;78.00;42.13;;;10.70;99.90;;;;;;4074311;28;20533;-68
2021/03/25 08:28:29;;;;;;;73.20;40.22;;;10.70;99.90;;;;;;4136324;28;20046;-68
2021/03/25 08:30:45;;;;;;;77.75;40.95;;;10.70;99.90;;;;;;4145472;28;20080;-68
2021/03/25 08:33:04;;;;;;;75.10;40.95;;;10.70;99.90;;;;;;4141832;28;20045;-68
2021/03/25 08:35:24;;;;;;;81.25;43.88;;;10.80;99.90;;;;;;4138903;28;20987;-68
2021/03/25 08:37:59;;;;;;;75.28;41.78;;;10.80;99.90;;;;;;4141534;28;20562;-68
2021/03/25 08:40:13;;;;;;;78.25;42.58;;;10.90;99.90;;;;;;4139935;28;20033;-68
2021/03/25 08:42:38;;;;;;;78.50;42.40;;;11.00;99.90;;;;;;4109309;28;20034;-68
2021/03/25 08:45:21;;;;;;;77.72;42.50;;;11.00;99.90;;;;;;4114277;28;20049;-68
2021/03/25 08:48:03;;;;;;;72.25;40.70;;;11.10;99.90;;;;;;4095414;28;20034;-69
2021/03/25 08:50:41;;;;;;;79.47;39.90;;;11.20;99.90;;;;;;4119069;28;20038;-68
2021/03/25 08:52:44;;;;;;;80.13;43.88;;;11.10;99.90;;;;;;4126101;28;20043;-69
2021/03/25 08:54:59;;;;;;;81.97;41.92;;;11.10;99.90;;;;;;4138310;28;20711;-68
2021/03/25 08:57:15;;;;;;;70.80;39.78;;;11.10;99.90;;;;;;4138412;28;20034;-68
2021/03/25 08:59:31;;;;;;;71.47;39.92;;;11.20;99.90;;;;;;4140727;28;20034;-68
2021/03/25 09:01:41;;;;;;;71.78;39.83;;;11.30;99.90;;;;;;4130781;28;20046;-68
2021/03/25 09:03:49;;;;;;;64.22;37.67;;;11.30;99.90;;;;;;4140608;28;20084;-72
2021/03/25 09:06:18;;;;;;;65.90;36.70;;;11.40;99.90;;;;;;4141852;28;20040;-68
2021/03/25 09:08:21;;;;;;;65.90;35.83;;;11.50;99.90;;;;;;4141909;28;20026;-68
2021/03/25 09:10:41;;;;;;;73.50;41.58;;;11.50;99.90;;;;;;4129928;28;20034;-68
2021/03/25 09:12:42;;;;;;;68.30;37.47;;;11.50;99.90;;;;;;4120891;28;20030;-68
2021/03/25 09:14:43;;;;;;;74.75;39.50;;;11.60;99.90;;;;;;4137679;28;20042;-68
2021/03/25 09:16:44;;;;;;;66.60;37.63;;;11.60;99.90;;;;;;4136411;28;20048;-68
2021/03/25 09:18:47;;;;;;;75.43;40.55;;;11.60;99.90;;;;;;4140958;28;20482;-68
2021/03/25 09:20:51;;;;;;;77.10;43.17;;;11.60;99.90;;;;;;4118499;28;20031;-68
2021/03/25 09:22:57;;;;;;;72.88;40.97;;;11.70;99.90;;;;;;4134967;28;20026;-68
2021/03/25 09:25:19;;;;;;;67.50;38.90;;;11.80;99.90;;;;;;4120248;28;20383;-68
2021/03/25 09:27:55;;;;;;;65.22;35.45;;;11.90;99.90;;;;;;4120133;28;20077;-68
2021/03/25 09:30:01;;;;;;;67.28;39.58;;;12.10;99.90;;;;;;4106839;28;20046;-68
2021/03/25 09:32:06;;;;;;;72.07;38.47;;;12.20;99.90;;;;;;4118836;28;20041;-68
2021/03/25 09:34:10;;;;;;;66.10;37.53;;;12.30;99.90;;;;;;4121832;28;20069;-68
2021/03/25 09:36:16;;;;;;;64.05;36.40;;;12.40;99.90;;;;;;4105157;28;20042;-68
2021/03/25 09:38:29;;;;;;;64.25;37.00;;;12.50;99.90;;;;;;4122070;28;20556;-68
2021/03/25 09:40:43;;;;;;;61.13;35.35;;;12.70;99.90;;;;;;4123081;28;20037;-68
2021/03/25 09:42:44;;;;;;;65.80;37.47;;;12.80;99.90;;;;;;4118946;28;20584;-68
2021/03/25 09:44:45;;;;;;;55.65;32.58;;;12.90;99.90;;;;;;4113737;28;20157;-68
2021/03/25 09:46:53;;;;;;;59.47;33.83;;;13.00;99.90;;;;;;4144256;28;20038;-68
2021/03/25 09:48:57;;;;;;;53.20;32.45;;;13.00;99.90;;;;;;4141359;28;20037;-68
2021/03/25 09:51:14;;;;;;;55.97;31.67;;;13.10;99.90;;;;;;4137132;28;20034;-68
2021/03/25 09:53:17;;;;;;;56.60;32.33;;;13.20;99.90;;;;;;4128024;28;20116;-68
2021/03/25 09:55:20;;;;;;;50.88;30.60;;;13.30;99.90;;;;;;4144545;28;20030;-68
2021/03/25 09:57:33;;;;;;;53.38;29.42;;;13.40;99.90;;;;;;4126350;28;20118;-68
2021/03/25 09:59:58;;;;;;;50.45;29.13;;;13.40;99.90;;;;;;4133783;28;20030;-68
2021/03/25 10:01:59;;;;;;;51.60;30.50;;;13.50;99.90;;;;;;4136659;28;20113;-68
2021/03/25 10:04:05;;;;;;;56.35;31.27;;;13.70;99.90;;;;;;4133928;28;20033;-68
2021/03/25 10:06:44;;;;;;;58.58;33.50;;;13.80;99.90;;;;;;4121591;28;20517;-68
2021/03/25 10:08:44;;;;;;;55.70;30.92;;;13.80;99.90;;;;;;4140943;28;20380;-68
2021/03/25 10:10:45;;;;;;;47.67;29.15;;;13.80;99.90;;;;;;4135381;28;20160;-68
2021/03/25 10:13:01;;;;;;;56.67;31.15;;;13.90;99.90;;;;;;4136537;28;20582;-68
2021/03/25 10:15:27;;;;;;;51.17;28.98;;;14.00;99.90;;;;;;4118533;28;20035;-68
2021/03/25 10:17:48;;;;;;;49.40;27.70;;;14.10;99.90;;;;;;4116337;28;20041;-68
2021/03/25 10:19:49;;;;;;;48.08;28.83;;;14.20;99.90;;;;;;4118186;28;20170;-68
2021/03/25 10:21:56;;;;;;;46.63;27.75;;;14.20;99.90;;;;;;4120570;28;20751;-68
2021/03/25 10:24:00;;;;;;;43.40;26.67;;;14.30;99.90;;;;;;4117588;28;20100;-68
2021/03/25 10:26:05;;;;;;;46.05;27.83;;;14.30;99.90;;;;;;4101837;28;20078;-68
2021/03/25 10:28:16;;;;;;;51.28;29.27;;;14.40;99.90;;;;;;4136039;28;20128;-68
2021/03/25 10:30:24;;;;;;;46.97;27.05;;;14.40;99.90;;;;;;4119309;28;20046;-68
2021/03/25 10:32:33;;;;;;;47.63;27.23;;;14.40;99.90;;;;;;4131573;28;20058;-68
2021/03/25 10:34:40;;;;;;;47.22;26.90;;;14.40;99.90;;;;;;4138684;28;20044;-68
2021/03/25 10:37:24;;;;;;;46.58;26.65;;;14.50;99.90;;;;;;4141476;28;20513;-68
2021/03/25 10:39:27;;;;;;;43.63;26.13;;;14.60;99.90;;;;;;4115835;28;20053;-68
2021/03/25 10:41:37;;;;;;;43.03;25.45;;;14.70;99.90;;;;;;4136521;28;20038;-68
2021/03/25 10:43:38;;;;;;;41.75;26.08;;;14.80;99.90;;;;;;4139370;28;20050;-68
2021/03/25 10:45:49;;;;;;;38.83;24.05;;;14.90;99.90;;;;;;4133750;28;20101;-68
2021/03/25 10:47:58;;;;;;;52.88;29.25;;;14.90;99.90;;;;;;4139453;28;20129;-68
2021/03/25 10:50:01;;;;;;;44.38;27.05;;;14.90;99.90;;;;;;4131143;28;20053;-68
2021/03/25 10:52:04;;;;;;;45.70;27.73;;;14.80;99.90;;;;;;4124022;28;20030;-68
2021/03/25 10:54:22;;;;;;;49.78;28.55;;;14.90;99.90;;;;;;4122498;28;20041;-68
2021/03/25 10:56:27;;;;;;;45.25;26.48;;;14.90;99.90;;;;;;4129698;28;20049;-68
2021/03/25 10:58:33;;;;;;;45.28;27.33;;;14.90;99.90;;;;;;4116828;28;20054;-68
2021/03/25 11:00:38;;;;;;;39.88;24.55;;;14.90;99.90;;;;;;4135545;28;20036;-68
2021/03/25 11:02:41;;;;;;;51.15;27.80;;;14.90;99.90;;;;;;4135758;28;20045;-68